Terminal Aerodrome Forecast
Issued by NWS

Home | Current Version | Previous Version | Text Only | Print | Product List | Glossary On
Versions: 1 2 3 4 5 6 7 8 9 10 11 12 13 14 15 16 17 18 19 20
000
FTUS41 KBTV 051419 AAA
TAFSLK
TAF AMD
KSLK 051419Z 0514/0612 14004KT 5SM -SN BR SCT010 OVC030
      TEMPO 0514/0516 1 1/2SM -SN BR OVC025
     FM051600 24006KT 4SM -SHSN BR OVC018
     FM052100 26004KT P6SM OVC010
     FM060000 26004KT 1SM BR OVC010=

USA.gov is the U.S. government's official web portal to all federal, state and local government web resources and services.